createdAt,value
2018-09-15T00:01:54.224Z,17.07
2018-09-15T00:04:22.553Z,16.93
2018-09-15T00:06:50.871Z,17.63
2018-09-15T00:09:19.172Z,17.73
2018-09-15T00:11:47.465Z,18.67
2018-09-15T00:14:15.767Z,18.73
2018-09-15T00:16:44.077Z,18.77
2018-09-15T00:19:12.432Z,19.83
2018-09-15T00:21:40.753Z,19.40
2018-09-15T00:24:09.077Z,19.03
2018-09-15T00:26:37.361Z,19.40
2018-09-15T00:29:05.686Z,17.83
2018-09-15T00:31:34.014Z,19.03
2018-09-15T00:34:02.344Z,18.20
2018-09-15T00:36:30.635Z,18.87
2018-09-15T00:38:58.972Z,18.80
2018-09-15T00:41:27.388Z,19.43
2018-09-15T00:43:55.717Z,18.97
2018-09-15T00:46:24.049Z,18.67
2018-09-15T00:48:52.463Z,18.90
2018-09-15T00:51:20.800Z,19.73
2018-09-15T00:53:49.124Z,20.33
2018-09-15T00:56:17.410Z,18.80
2018-09-15T00:58:45.797Z,18.60
2018-09-15T01:01:14.117Z,18.80
2018-09-15T01:03:42.437Z,18.37
2018-09-15T01:06:10.784Z,18.70
2018-09-15T01:08:39.148Z,21.23
2018-09-15T01:11:07.470Z,20.63
2018-09-15T01:13:35.778Z,21.37
2018-09-15T01:16:04.117Z,20.73
2018-09-15T01:18:32.488Z,20.57
2018-09-15T01:21:01.011Z,20.70
2018-09-15T01:23:29.343Z,18.17
2018-09-15T01:25:57.715Z,18.00
2018-09-15T01:28:26.006Z,19.70
2018-09-15T01:30:54.478Z,19.37
2018-09-15T01:33:22.880Z,19.80
2018-09-15T01:35:51.208Z,20.40
2018-09-15T01:38:19.543Z,20.30
2018-09-15T01:40:50.744Z,22.03
2018-09-15T01:43:19.052Z,20.70
2018-09-15T01:45:47.365Z,20.07
2018-09-15T01:48:15.684Z,21.27
2018-09-15T01:50:44.013Z,20.67
2018-09-15T01:53:12.368Z,21.03
2018-09-15T01:55:40.729Z,20.50
2018-09-15T01:58:09.031Z,20.60
2018-09-15T02:00:37.377Z,20.67
2018-09-15T02:03:05.727Z,20.80
2018-09-15T02:05:34.050Z,18.30
2018-09-15T02:08:02.400Z,18.23
2018-09-15T02:10:30.755Z,18.90
2018-09-15T02:12:59.148Z,17.77
2018-09-15T02:15:27.445Z,18.80
2018-09-15T02:17:55.921Z,18.87
2018-09-15T02:20:24.255Z,19.43
2018-09-15T02:22:52.625Z,18.80
2018-09-15T02:25:20.976Z,19.60
2018-09-15T02:27:49.300Z,19.73
2018-09-15T02:30:17.654Z,20.60
2018-09-15T02:32:52.747Z,21.50
2018-09-15T02:35:21.068Z,21.23
2018-09-15T02:37:49.408Z,22.63
2018-09-15T02:40:17.750Z,23.20
2018-09-15T02:42:46.073Z,22.53
2018-09-15T02:45:14.426Z,22.70
2018-09-15T02:47:43.076Z,22.90
2018-09-15T02:50:11.395Z,22.70
2018-09-15T02:52:39.703Z,22.77
2018-09-15T02:55:08.020Z,22.90
2018-09-15T02:57:36.312Z,22.53
2018-09-15T03:00:04.730Z,22.50
2018-09-15T03:02:33.051Z,21.80
2018-09-15T03:05:01.359Z,20.73
2018-09-15T03:07:29.807Z,19.83
2018-09-15T03:09:58.144Z,19.70
2018-09-15T03:12:26.505Z,19.03
2018-09-15T03:17:57.592Z,20.43
2018-09-15T03:20:25.874Z,21.77
2018-09-15T03:22:54.176Z,21.40
2018-09-15T03:25:22.486Z,22.47
2018-09-15T03:27:50.789Z,22.60
2018-09-15T03:30:19.089Z,20.70
2018-09-15T03:32:47.364Z,22.30
2018-09-15T03:35:15.647Z,22.17
2018-09-15T03:37:43.934Z,22.77
2018-09-15T03:40:12.256Z,22.70
2018-09-15T03:42:40.574Z,22.87
2018-09-15T03:45:08.958Z,23.50
2018-09-15T03:47:37.305Z,22.20
2018-09-15T03:50:05.616Z,21.97
2018-09-15T03:52:34.045Z,21.73
2018-09-15T03:55:02.505Z,21.53
2018-09-15T03:57:30.842Z,22.70
2018-09-15T03:59:59.127Z,21.73
2018-09-15T04:02:27.409Z,21.50
2018-09-15T04:04:55.741Z,21.80
2018-09-15T04:07:24.126Z,20.93
2018-09-15T04:09:52.502Z,20.60
2018-09-15T04:12:20.915Z,21.83
2018-09-15T04:14:49.196Z,21.53
2018-09-15T04:17:17.484Z,19.80
2018-09-15T04:19:45.778Z,20.00
2018-09-15T04:22:14.120Z,20.17
2018-09-15T04:24:42.402Z,19.13
2018-09-15T04:27:10.708Z,19.30
2018-09-15T04:29:39.020Z,19.27
2018-09-15T04:32:07.319Z,18.97
2018-09-15T04:34:35.631Z,18.27
2018-09-15T04:37:03.955Z,17.87
2018-09-15T04:39:32.284Z,17.70
2018-09-15T04:42:00.561Z,17.33
2018-09-15T04:44:28.844Z,16.10
2018-09-15T04:46:57.138Z,14.90
2018-09-15T04:49:25.457Z,15.40
2018-09-15T04:51:53.735Z,15.07
2018-09-15T04:54:22.008Z,14.40
2018-09-15T04:56:50.310Z,14.33
2018-09-15T04:59:19.582Z,13.83
2018-09-15T05:01:47.900Z,14.57
2018-09-15T05:04:16.299Z,14.00
2018-09-15T05:06:44.663Z,14.70
2018-09-15T05:09:13.461Z,14.83
2018-09-15T05:11:42.256Z,16.23
2018-09-15T05:14:10.535Z,14.80
2018-09-15T05:16:38.823Z,14.70
2018-09-15T05:19:07.127Z,14.97
2018-09-15T05:21:35.417Z,15.40
2018-09-15T05:24:03.740Z,14.77
2018-09-15T05:26:32.045Z,14.80
2018-09-15T05:29:00.330Z,14.70
2018-09-15T05:31:28.626Z,14.40
2018-09-15T05:33:56.925Z,14.43
2018-09-15T05:36:25.252Z,15.30
2018-09-15T05:38:53.554Z,14.73
2018-09-15T05:41:21.818Z,14.80
2018-09-15T05:43:50.104Z,15.00
2018-09-15T05:46:18.387Z,13.93
2018-09-15T05:48:46.691Z,14.10
2018-09-15T05:51:15.016Z,13.60
2018-09-15T05:53:43.303Z,14.13
2018-09-15T05:56:11.687Z,13.73
2018-09-15T05:58:39.913Z,13.53
2018-09-15T06:01:08.541Z,13.63
2018-09-15T06:03:36.852Z,13.40
2018-09-15T06:06:05.125Z,13.00
2018-09-15T06:08:33.412Z,12.97
2018-09-15T06:11:01.816Z,12.77
2018-09-15T06:13:30.120Z,12.20
2018-09-15T06:15:58.396Z,11.17
2018-09-15T06:18:26.721Z,12.20
2018-09-15T06:20:55.033Z,11.00
2018-09-15T06:23:23.315Z,11.53
2018-09-15T06:25:51.596Z,11.27
2018-09-15T06:28:19.886Z,11.07
2018-09-15T06:30:48.198Z,12.13
2018-09-15T06:33:16.481Z,12.03
2018-09-15T06:35:44.772Z,12.07
2018-09-15T06:38:13.147Z,12.80
2018-09-15T06:40:41.412Z,13.00
2018-09-15T06:43:09.724Z,12.63
2018-09-15T06:45:38.035Z,14.07
2018-09-15T06:48:06.372Z,12.23
2018-09-15T06:50:34.630Z,12.80
2018-09-15T06:53:02.979Z,13.00
2018-09-15T06:55:31.271Z,12.07
2018-09-15T06:57:59.588Z,12.43
2018-09-15T07:00:27.880Z,12.07
2018-09-15T07:02:56.164Z,11.53
2018-09-15T07:05:24.559Z,11.20
2018-09-15T07:07:52.904Z,11.10
2018-09-15T07:10:21.267Z,10.90
2018-09-15T07:12:49.550Z,10.83
2018-09-15T07:15:17.832Z,10.40
2018-09-15T07:17:46.220Z,9.63
2018-09-15T07:20:14.584Z,8.70
2018-09-15T07:22:43.124Z,8.53
2018-09-15T07:25:11.469Z,7.97
2018-09-15T07:27:39.860Z,7.87
2018-09-15T07:30:08.215Z,7.07
2018-09-15T07:32:36.529Z,6.80
2018-09-15T07:35:05.147Z,5.90
2018-09-15T07:37:33.476Z,5.50
2018-09-15T07:40:01.839Z,6.43
2018-09-15T07:42:30.134Z,5.80
2018-09-15T07:44:58.457Z,5.57
2018-09-15T07:47:26.839Z,5.00
2018-09-15T07:49:55.169Z,4.93
2018-09-15T07:52:24.039Z,4.97
2018-09-15T07:54:52.417Z,4.63
2018-09-15T07:57:20.744Z,5.10
2018-09-15T07:59:49.016Z,4.93
2018-09-15T08:02:19.689Z,5.20
2018-09-15T08:04:48.383Z,4.80
2018-09-15T08:07:16.949Z,4.90
2018-09-15T08:09:46.489Z,4.17
2018-09-15T08:12:15.562Z,4.07
2018-09-15T08:14:43.968Z,4.10
2018-09-15T08:17:12.388Z,4.23
2018-09-15T08:19:40.722Z,4.60
2018-09-15T08:22:09.044Z,4.80
2018-09-15T08:24:37.423Z,4.50
2018-09-15T08:27:05.808Z,4.37
2018-09-15T08:29:34.098Z,4.10
2018-09-15T08:32:02.578Z,4.10
2018-09-15T08:34:30.860Z,2.90
2018-09-15T08:36:59.507Z,3.27
2018-09-15T08:39:27.803Z,2.90
2018-09-15T08:41:56.096Z,3.50
2018-09-15T08:44:24.614Z,2.97
2018-09-15T08:46:52.916Z,3.00
2018-09-15T08:49:21.216Z,2.97
2018-09-15T08:51:49.527Z,2.90
2018-09-15T08:54:17.873Z,2.90
2018-09-15T08:56:46.215Z,3.10
2018-09-15T08:59:14.492Z,2.47
2018-09-15T09:01:42.846Z,2.80
2018-09-15T09:04:11.175Z,2.93
2018-09-15T09:06:39.507Z,3.07
2018-09-15T09:09:09.611Z,2.43
2018-09-15T09:11:37.895Z,2.53
2018-09-15T09:14:06.224Z,4.27
2018-09-15T09:16:34.582Z,2.90
2018-09-15T09:19:02.940Z,2.73
2018-09-15T09:21:31.239Z,3.10
2018-09-15T09:23:59.644Z,3.27
2018-09-15T09:26:28.098Z,2.30
2018-09-15T09:28:56.314Z,3.07
2018-09-15T09:31:24.658Z,2.70
2018-09-15T09:33:52.992Z,2.70
2018-09-15T09:36:22.309Z,2.90
2018-09-15T09:38:50.620Z,2.43
2018-09-15T09:41:18.957Z,2.47
2018-09-15T09:43:47.410Z,2.70
2018-09-15T09:46:15.760Z,2.93
2018-09-15T09:48:44.113Z,2.77
2018-09-15T09:51:12.491Z,2.70
2018-09-15T09:53:40.802Z,2.30
2018-09-15T09:56:09.121Z,3.23
2018-09-15T09:58:44.084Z,2.80
2018-09-15T10:01:17.834Z,2.70
2018-09-15T10:03:46.057Z,3.63
2018-09-15T10:06:14.404Z,2.53
2018-09-15T10:08:49.080Z,2.47
2018-09-15T10:11:17.447Z,2.70
2018-09-15T10:13:48.776Z,2.73
2018-09-15T10:16:17.442Z,2.73
2018-09-15T10:18:45.823Z,2.60
2018-09-15T10:21:14.419Z,2.50
2018-09-15T10:23:42.750Z,2.67
2018-09-15T10:26:11.117Z,2.70
2018-09-15T10:28:39.543Z,3.10
2018-09-15T10:31:07.932Z,3.00
2018-09-15T10:33:36.254Z,2.80
2018-09-15T10:36:04.591Z,3.00
2018-09-15T10:38:32.878Z,2.30
2018-09-15T10:41:01.161Z,3.17
2018-09-15T10:43:29.477Z,2.47
2018-09-15T10:45:57.804Z,2.93
2018-09-15T10:48:26.072Z,2.70
2018-09-15T10:50:54.462Z,2.90
2018-09-15T10:53:22.772Z,2.80
2018-09-15T10:55:51.111Z,2.47
2018-09-15T10:58:19.481Z,2.70
2018-09-15T11:00:47.847Z,2.97
2018-09-15T11:03:16.066Z,2.50
2018-09-15T11:05:44.536Z,2.50
2018-09-15T11:08:12.814Z,2.37
2018-09-15T11:10:41.843Z,2.60
2018-09-15T11:13:10.621Z,2.00
2018-09-15T11:15:39.942Z,2.00
2018-09-15T11:18:08.261Z,2.27
2018-09-15T11:20:36.652Z,2.57
2018-09-15T11:23:05.007Z,2.63
2018-09-15T11:25:33.331Z,2.50
2018-09-15T11:28:01.666Z,2.50
2018-09-15T11:30:30.119Z,2.83
2018-09-15T11:32:58.440Z,2.37
2018-09-15T11:35:26.752Z,2.83
2018-09-15T11:37:55.110Z,2.70
2018-09-15T11:40:23.405Z,2.70
2018-09-15T11:42:51.769Z,2.43
2018-09-15T11:45:20.139Z,2.47
2018-09-15T11:47:48.468Z,2.00
2018-09-15T11:50:16.732Z,2.50
2018-09-15T11:52:45.099Z,2.40
2018-09-15T11:55:13.436Z,2.30
2018-09-15T11:57:41.917Z,2.23
2018-09-15T12:00:10.425Z,2.20
2018-09-15T12:02:38.627Z,2.03
2018-09-15T12:05:06.955Z,2.03
2018-09-15T12:07:35.246Z,2.30
2018-09-15T12:10:03.626Z,2.50
2018-09-15T12:12:31.945Z,2.10
2018-09-15T12:15:00.236Z,2.30
2018-09-15T12:17:28.510Z,1.80
2018-09-15T12:19:56.876Z,1.90
2018-09-15T12:22:25.226Z,2.03
2018-09-15T12:24:53.488Z,2.27
2018-09-15T12:27:21.801Z,2.17
2018-09-15T12:29:50.053Z,2.23
2018-09-15T12:32:18.389Z,2.43
2018-09-15T12:34:46.634Z,2.07
2018-09-15T12:37:14.936Z,2.00
2018-09-15T12:39:43.225Z,2.20
2018-09-15T12:42:11.556Z,1.93
2018-09-15T12:44:39.855Z,2.03
2018-09-15T12:47:08.164Z,2.40
2018-09-15T12:49:36.468Z,2.20
2018-09-15T12:52:04.922Z,2.27
2018-09-15T12:54:33.216Z,2.00
2018-09-15T12:57:01.569Z,2.10
2018-09-15T12:59:30.193Z,2.20
2018-09-15T13:01:58.538Z,2.07
2018-09-15T13:04:27.015Z,1.90
2018-09-15T13:06:55.553Z,1.80
2018-09-15T13:09:23.976Z,2.40
2018-09-15T13:11:52.379Z,2.00
2018-09-15T13:14:20.769Z,2.40
2018-09-15T13:16:49.107Z,2.17
2018-09-15T13:19:17.528Z,1.93
2018-09-15T13:21:46.008Z,2.20
2018-09-15T13:24:14.417Z,2.40
2018-09-15T13:26:43.334Z,2.03
2018-09-15T13:29:12.939Z,2.20
2018-09-15T13:31:41.480Z,2.20
2018-09-15T13:34:09.924Z,2.33
2018-09-15T13:36:38.286Z,2.13
2018-09-15T13:39:08.602Z,2.30
2018-09-15T13:41:37.117Z,2.03
2018-09-15T13:44:05.483Z,2.03
2018-09-15T13:46:33.811Z,2.10
2018-09-15T13:49:02.963Z,3.03
2018-09-15T13:51:31.296Z,2.20
2018-09-15T13:53:59.583Z,1.90
2018-09-15T13:56:27.894Z,2.80
2018-09-15T13:58:56.444Z,2.20
2018-09-15T14:01:24.667Z,1.93
2018-09-15T14:03:52.993Z,2.20
2018-09-15T14:06:21.439Z,2.00
2018-09-15T14:08:49.812Z,2.10
2018-09-15T14:11:18.195Z,5.20
2018-09-15T14:13:46.515Z,4.27
2018-09-15T14:16:14.939Z,9.73
2018-09-15T14:18:43.240Z,7.93
2018-09-15T14:21:11.601Z,2.30
2018-09-15T14:23:39.932Z,11.23
2018-09-15T14:26:08.232Z,6.93
2018-09-15T14:28:36.518Z,8.87
2018-09-15T14:31:04.869Z,9.40
2018-09-15T14:33:33.223Z,3.80
2018-09-15T14:36:01.501Z,3.03
2018-09-15T14:38:29.827Z,2.10
2018-09-15T14:40:58.169Z,6.13
2018-09-15T14:43:26.487Z,13.73
2018-09-15T14:45:54.864Z,8.50
2018-09-15T14:48:23.293Z,5.93
2018-09-15T14:50:51.564Z,3.93
2018-09-15T14:53:19.861Z,6.87
2018-09-15T14:55:50.206Z,3.20
2018-09-15T14:58:18.536Z,2.90
2018-09-15T15:00:46.909Z,3.43
2018-09-15T15:03:15.781Z,5.07
2018-09-15T15:05:44.487Z,2.43
2018-09-15T15:08:12.914Z,2.77
2018-09-15T15:10:41.232Z,2.60
2018-09-15T15:13:09.516Z,2.60
2018-09-15T15:15:37.831Z,2.60
2018-09-15T15:18:06.197Z,2.30
2018-09-15T15:20:34.523Z,2.27
2018-09-15T15:23:03.722Z,2.37
2018-09-15T15:25:32.036Z,1.80
2018-09-15T15:28:00.308Z,2.00
2018-09-15T15:30:28.624Z,2.40
2018-09-15T15:32:56.931Z,2.33
2018-09-15T15:35:25.349Z,1.90
2018-09-15T15:37:53.613Z,2.20
2018-09-15T15:40:21.927Z,2.03
2018-09-15T15:42:50.234Z,2.00
2018-09-15T15:45:18.724Z,1.80
2018-09-15T15:47:47.015Z,2.00
2018-09-15T15:50:15.301Z,2.10
2018-09-15T15:52:43.602Z,1.80
2018-09-15T15:55:12.046Z,2.03
2018-09-15T15:57:40.352Z,1.93
2018-09-15T16:00:08.731Z,1.70
2018-09-15T16:02:37.034Z,2.07
2018-09-15T16:05:05.384Z,1.93
2018-09-15T16:07:33.709Z,1.73
2018-09-15T16:10:02.029Z,1.97
2018-09-15T16:12:30.341Z,2.23
2018-09-15T16:14:58.627Z,1.93
2018-09-15T16:17:26.932Z,1.70
2018-09-15T16:19:55.243Z,2.00
2018-09-15T16:22:23.553Z,1.87
2018-09-15T16:24:51.890Z,1.93
2018-09-15T16:27:20.212Z,1.90
2018-09-15T16:29:48.503Z,2.60
2018-09-15T16:32:16.800Z,2.53
2018-09-15T16:34:45.126Z,2.47
2018-09-15T16:37:14.430Z,2.43
2018-09-15T16:39:42.709Z,2.70
2018-09-15T16:42:11.173Z,2.17
2018-09-15T16:44:39.486Z,2.43
2018-09-15T16:47:07.836Z,2.30
2018-09-15T16:49:36.280Z,2.70
2018-09-15T16:52:04.693Z,2.90
2018-09-15T16:54:33.127Z,2.20
2018-09-15T16:57:01.514Z,2.60
2018-09-15T16:59:29.739Z,2.93
2018-09-15T17:01:58.071Z,3.80
2018-09-15T17:04:26.342Z,3.27
2018-09-15T17:06:54.665Z,2.40
2018-09-15T17:09:23.101Z,1.83
2018-09-15T17:11:51.402Z,2.20
2018-09-15T17:14:19.681Z,2.30
2018-09-15T17:16:48.199Z,2.60
2018-09-15T17:19:16.278Z,2.63
2018-09-15T17:21:44.583Z,2.43
2018-09-15T17:24:12.900Z,2.10
2018-09-15T17:26:41.326Z,2.40
2018-09-15T17:29:09.624Z,2.53
2018-09-15T17:31:37.960Z,2.00
2018-09-15T17:34:06.309Z,1.90
2018-09-15T17:36:34.625Z,2.30
2018-09-15T17:39:02.973Z,2.47
2018-09-15T17:41:31.278Z,3.20
2018-09-15T17:43:59.560Z,2.97
2018-09-15T17:46:27.900Z,3.40
2018-09-15T17:48:56.145Z,3.07
2018-09-15T17:51:24.551Z,3.67
2018-09-15T17:53:52.898Z,2.97
2018-09-15T17:56:21.196Z,3.17
2018-09-15T17:58:49.503Z,2.90
2018-09-15T18:01:17.816Z,3.23
2018-09-15T18:03:46.142Z,2.60
2018-09-15T18:06:14.419Z,2.47
2018-09-15T18:08:42.720Z,2.47
2018-09-15T18:11:11.177Z,2.13
2018-09-15T18:13:39.476Z,2.60
2018-09-15T18:16:07.806Z,2.60
2018-09-15T18:18:36.136Z,2.57
2018-09-15T18:21:04.468Z,2.47
2018-09-15T18:23:32.790Z,2.40
2018-09-15T18:26:01.241Z,2.77
2018-09-15T18:28:29.530Z,2.60
2018-09-15T18:30:57.827Z,2.50
2018-09-15T18:33:26.116Z,2.50
2018-09-15T18:35:54.521Z,2.57
2018-09-15T18:38:22.880Z,3.30
2018-09-15T18:40:51.204Z,3.50
2018-09-15T18:43:19.543Z,3.87
2018-09-15T18:45:47.857Z,3.33
2018-09-15T18:48:16.198Z,3.00
2018-09-15T18:50:44.508Z,3.07
2018-09-15T18:53:12.879Z,3.13
2018-09-15T18:55:41.176Z,2.90
2018-09-15T18:58:09.498Z,2.80
2018-09-15T19:00:37.770Z,3.07
2018-09-15T19:03:06.228Z,5.17
2018-09-15T19:05:34.594Z,6.03
2018-09-15T19:08:02.928Z,3.90
2018-09-15T19:10:31.209Z,3.10
2018-09-15T19:12:59.526Z,3.40
2018-09-15T19:15:27.800Z,2.97
2018-09-15T19:17:56.125Z,2.90
2018-09-15T19:20:24.518Z,3.27
2018-09-15T19:22:52.806Z,3.03
2018-09-15T19:25:21.106Z,3.10
2018-09-15T19:27:49.427Z,3.27
2018-09-15T19:30:17.750Z,3.40
2018-09-15T19:32:46.356Z,3.40
2018-09-15T19:35:14.592Z,3.07
2018-09-15T19:37:42.908Z,3.50
2018-09-15T19:40:11.260Z,3.10
2018-09-15T19:42:39.603Z,4.33
2018-09-15T19:45:22.209Z,5.27
2018-09-15T19:47:50.620Z,4.03
2018-09-15T19:50:22.392Z,4.07
2018-09-15T19:52:54.864Z,4.30
2018-09-15T19:55:24.292Z,4.30
2018-09-15T19:57:56.528Z,4.23
2018-09-15T20:00:29.772Z,4.50
2018-09-15T20:03:04.535Z,4.17
2018-09-15T20:05:32.971Z,4.17
2018-09-15T20:08:03.329Z,4.50
2018-09-15T20:10:31.711Z,4.50
2018-09-15T20:13:04.063Z,5.07
2018-09-15T20:15:31.220Z,5.97
2018-09-15T20:18:05.715Z,5.87
2018-09-15T20:20:32.955Z,4.93
2018-09-15T20:23:01.281Z,5.60
2018-09-15T20:25:29.687Z,5.47
2018-09-15T20:27:58.078Z,5.23
2018-09-15T20:30:33.066Z,5.33
2018-09-15T20:33:03.606Z,5.50
2018-09-15T20:35:32.830Z,5.93
2018-09-15T20:38:02.822Z,6.27
2018-09-15T20:40:32.258Z,7.50
2018-09-15T20:43:02.991Z,6.80
2018-09-15T20:48:22.908Z,5.60
2018-09-15T20:50:57.939Z,5.93
2018-09-15T20:53:27.334Z,6.33
2018-09-15T20:55:57.655Z,6.70
2018-09-15T20:58:26.057Z,5.90
2018-09-15T21:01:06.592Z,6.00
2018-09-15T21:03:47.063Z,5.87
2018-09-15T21:06:16.427Z,5.07
2018-09-15T21:08:44.823Z,5.47
2018-09-15T21:11:13.233Z,5.40
2018-09-15T21:13:41.635Z,6.00
2018-09-15T21:16:12.562Z,6.03
2018-09-15T21:18:42.991Z,6.33
2018-09-15T21:21:16.775Z,6.17
2018-09-15T21:23:46.173Z,5.50
2018-09-15T21:26:16.467Z,6.27
2018-09-15T21:28:46.822Z,6.83
2018-09-15T21:31:17.116Z,6.13
2018-09-15T21:33:51.871Z,5.50
2018-09-15T21:36:22.704Z,5.43
2018-09-15T21:38:52.094Z,5.53
2018-09-15T21:41:24.040Z,5.60
2018-09-15T21:43:57.340Z,5.03
2018-09-15T21:46:26.634Z,5.53
2018-09-15T21:49:01.092Z,6.77
2018-09-15T21:51:35.392Z,8.57
2018-09-15T21:54:03.866Z,9.87
2018-09-15T21:56:33.298Z,7.37
2018-09-15T21:59:01.650Z,6.63
2018-09-15T22:01:30.307Z,6.77
2018-09-15T22:04:04.063Z,5.73
2018-09-15T22:06:32.375Z,6.00
2018-09-15T22:09:00.684Z,5.50
2018-09-15T22:11:29.060Z,5.10
2018-09-15T22:13:57.539Z,5.30
2018-09-15T22:16:25.835Z,5.00
2018-09-15T22:18:54.165Z,4.67
2018-09-15T22:21:26.905Z,4.57
2018-09-15T22:24:00.694Z,4.37
2018-09-15T22:26:33.731Z,4.13
2018-09-15T22:29:02.705Z,4.57
2018-09-15T22:31:31.227Z,4.90
2018-09-15T22:34:00.729Z,5.67
2018-09-15T22:36:29.096Z,5.60
2018-09-15T22:38:57.602Z,5.70
2018-09-15T22:41:25.900Z,7.13
2018-09-15T22:43:54.428Z,6.47
2018-09-15T22:46:22.901Z,5.40
2018-09-15T22:48:51.239Z,5.40
2018-09-15T22:51:19.593Z,5.47
2018-09-15T22:53:48.228Z,5.00
2018-09-15T22:56:16.649Z,5.20
2018-09-15T22:58:45.111Z,5.17
2018-09-15T23:01:13.525Z,5.60
2018-09-15T23:03:41.876Z,5.50
2018-09-15T23:06:11.215Z,5.40
2018-09-15T23:08:39.646Z,5.90
2018-09-15T23:11:08.538Z,5.37
2018-09-15T23:13:37.090Z,4.80
2018-09-15T23:16:05.437Z,4.77
2018-09-15T23:18:33.737Z,4.33
2018-09-15T23:21:02.197Z,5.07
2018-09-15T23:23:30.508Z,5.43
2018-09-15T23:25:58.882Z,5.27
2018-09-15T23:28:27.196Z,5.17
2018-09-15T23:30:55.573Z,5.20
2018-09-15T23:33:23.940Z,5.60
2018-09-15T23:35:52.329Z,5.83
2018-09-15T23:38:20.708Z,5.77
2018-09-15T23:40:48.985Z,5.13
2018-09-15T23:43:17.402Z,5.23
2018-09-15T23:45:45.728Z,4.83
2018-09-15T23:48:14.124Z,5.10
2018-09-15T23:50:42.567Z,4.60
2018-09-15T23:53:11.000Z,4.57
2018-09-15T23:55:39.323Z,4.40
2018-09-15T23:58:08.019Z,4.40
